createdAt,value
2022-11-30T00:00:39.046Z,59.47
2022-11-30T00:01:41.317Z,59.51
2022-11-30T00:02:43.812Z,59.45
2022-11-30T00:03:46.999Z,59.48
2022-11-30T00:04:49.532Z,59.52
2022-11-30T00:05:52.170Z,59.39
2022-11-30T00:06:57.378Z,59.40
2022-11-30T00:08:01.330Z,59.48
2022-11-30T00:09:03.684Z,59.41
2022-11-30T00:10:07.383Z,59.36
2022-11-30T00:11:12.695Z,59.33
2022-11-30T00:12:14.942Z,59.36
2022-11-30T00:13:17.126Z,59.22
2022-11-30T00:14:19.330Z,59.23
2022-11-30T00:15:21.543Z,59.19
2022-11-30T00:16:30.160Z,59.35
2022-11-30T00:17:32.435Z,59.33
2022-11-30T00:18:34.778Z,59.38
2022-11-30T00:19:40.041Z,59.42
2022-11-30T00:20:42.231Z,59.44
2022-11-30T00:21:44.410Z,59.31
2022-11-30T00:22:46.622Z,59.43
2022-11-30T00:23:51.100Z,59.38
2022-11-30T00:24:53.342Z,59.28
2022-11-30T00:25:55.510Z,59.46
2022-11-30T00:26:57.755Z,59.47
2022-11-30T00:28:00.609Z,59.33
2022-11-30T00:29:10.438Z,59.39
2022-11-30T00:30:13.341Z,59.34
2022-11-30T00:31:17.339Z,59.44
2022-11-30T00:32:19.611Z,59.36
2022-11-30T00:33:21.838Z,59.28
2022-11-30T00:34:24.075Z,59.33
2022-11-30T00:35:26.323Z,59.46
2022-11-30T00:36:28.583Z,59.42
2022-11-30T00:37:30.844Z,59.54
2022-11-30T00:38:33.884Z,59.52
2022-11-30T00:39:36.132Z,59.39
2022-11-30T00:40:38.342Z,59.40
2022-11-30T00:41:40.669Z,59.43
2022-11-30T00:42:42.934Z,59.48
2022-11-30T00:43:45.639Z,59.55
2022-11-30T00:44:48.128Z,59.58
2022-11-30T00:45:50.837Z,59.48
2022-11-30T00:46:53.173Z,59.63
2022-11-30T00:47:55.380Z,59.55
2022-11-30T00:48:57.660Z,59.60
2022-11-30T00:49:59.913Z,59.61
2022-11-30T00:51:02.195Z,59.63
2022-11-30T00:52:04.661Z,59.67
2022-11-30T00:53:07.130Z,59.63
2022-11-30T00:54:10.011Z,59.70
2022-11-30T00:55:12.209Z,59.74
2022-11-30T00:56:14.863Z,59.65
2022-11-30T00:57:17.186Z,59.75
2022-11-30T00:58:19.857Z,59.58
2022-11-30T00:59:22.046Z,59.56
2022-11-30T01:00:24.335Z,59.64
2022-11-30T01:01:26.697Z,59.44
2022-11-30T01:02:28.961Z,59.66
2022-11-30T01:03:31.227Z,59.65
2022-11-30T01:04:33.509Z,59.71
2022-11-30T01:05:36.649Z,59.83
2022-11-30T01:06:39.287Z,59.81
2022-11-30T01:07:41.489Z,59.74
2022-11-30T01:08:43.799Z,59.84
2022-11-30T01:09:46.002Z,59.71
2022-11-30T01:10:53.354Z,59.70
2022-11-30T01:11:55.660Z,59.73
2022-11-30T01:12:57.863Z,59.71
2022-11-30T01:14:01.013Z,59.63
2022-11-30T01:15:03.646Z,59.80
2022-11-30T01:16:11.358Z,59.65
2022-11-30T01:17:13.664Z,59.73
2022-11-30T01:18:16.060Z,59.74
2022-11-30T01:19:18.344Z,59.84
2022-11-30T01:20:20.650Z,59.73
2022-11-30T01:21:25.901Z,59.76
2022-11-30T01:22:29.056Z,59.69
2022-11-30T01:23:31.278Z,59.60
2022-11-30T01:24:33.850Z,59.76
2022-11-30T01:25:36.313Z,59.63
2022-11-30T01:26:38.555Z,59.74
2022-11-30T01:27:40.789Z,59.71
2022-11-30T01:28:46.109Z,59.74
2022-11-30T01:29:48.322Z,59.72
2022-11-30T01:31:16.148Z,59.71
2022-11-30T01:32:18.486Z,59.81
2022-11-30T01:33:20.734Z,59.83
2022-11-30T01:34:22.960Z,59.60
2022-11-30T01:35:25.145Z,59.86
2022-11-30T01:36:27.364Z,59.65
2022-11-30T01:37:32.711Z,59.71
2022-11-30T01:38:40.759Z,59.86
2022-11-30T01:39:45.739Z,59.86
2022-11-30T01:40:54.161Z,59.79
2022-11-30T01:41:56.439Z,59.56
2022-11-30T01:42:58.634Z,59.71
2022-11-30T01:44:06.893Z,59.52
2022-11-30T01:45:12.881Z,59.51
2022-11-30T01:46:38.755Z,59.53
2022-11-30T01:47:46.572Z,59.57
2022-11-30T01:48:56.084Z,59.36
2022-11-30T01:50:04.370Z,59.66
2022-11-30T01:51:09.202Z,59.71
2022-11-30T01:52:15.709Z,59.55
2022-11-30T01:53:18.013Z,59.51
2022-11-30T01:54:25.054Z,59.61
2022-11-30T01:55:35.928Z,59.51
2022-11-30T01:56:43.220Z,59.68
2022-11-30T01:57:51.564Z,59.46
2022-11-30T01:58:53.776Z,59.52
2022-11-30T01:59:59.049Z,59.44
2022-11-30T02:01:01.478Z,59.37
2022-11-30T02:02:03.760Z,59.38
2022-11-30T02:03:11.428Z,59.45
2022-11-30T02:04:13.565Z,59.31
2022-11-30T02:05:17.400Z,59.52
2022-11-30T02:06:19.796Z,59.42
2022-11-30T02:07:22.290Z,59.49
2022-11-30T02:08:25.202Z,59.49
2022-11-30T02:09:29.091Z,59.35
2022-11-30T02:10:34.687Z,59.39
2022-11-30T02:11:37.052Z,59.55
2022-11-30T02:12:58.954Z,59.37
2022-11-30T02:14:24.164Z,59.29
2022-11-30T02:15:31.546Z,59.16
2022-11-30T02:16:55.918Z,59.28
2022-11-30T02:18:19.546Z,59.30
2022-11-30T02:19:39.901Z,59.17
2022-11-30T02:21:05.463Z,59.29
2022-11-30T02:22:28.357Z,59.22
2022-11-30T02:23:43.339Z,59.21
2022-11-30T02:24:59.576Z,59.15
2022-11-30T02:26:30.347Z,59.17
2022-11-30T02:27:47.578Z,59.08
2022-11-30T02:29:47.552Z,59.10
2022-11-30T02:30:54.065Z,59.01
2022-11-30T02:32:10.087Z,59.00
2022-11-30T02:33:16.632Z,58.90
2022-11-30T02:34:22.413Z,58.94
2022-11-30T02:35:29.236Z,58.92
2022-11-30T02:36:32.444Z,58.89
2022-11-30T02:37:37.216Z,59.01
2022-11-30T02:38:40.315Z,58.98
2022-11-30T02:39:46.480Z,59.08
2022-11-30T02:40:48.901Z,59.02
2022-11-30T02:41:54.121Z,58.80
2022-11-30T02:43:00.246Z,58.92
2022-11-30T02:44:03.798Z,58.95
2022-11-30T02:45:08.092Z,58.84
2022-11-30T02:46:23.541Z,58.93
2022-11-30T02:47:32.734Z,58.91
2022-11-30T02:48:45.784Z,59.04
2022-11-30T02:49:53.630Z,58.95
2022-11-30T02:51:00.899Z,58.91
2022-11-30T02:52:05.495Z,59.09
2022-11-30T02:53:09.689Z,58.97
2022-11-30T02:54:12.433Z,59.09
2022-11-30T02:55:17.633Z,59.09
2022-11-30T02:56:20.848Z,59.08
2022-11-30T02:57:25.560Z,59.13
2022-11-30T02:58:31.009Z,59.20
2022-11-30T02:59:33.589Z,59.10
2022-11-30T03:00:35.971Z,59.01
2022-11-30T03:01:39.828Z,58.99
2022-11-30T03:02:42.635Z,59.07
2022-11-30T03:03:45.189Z,59.03
2022-11-30T03:04:47.618Z,59.09
2022-11-30T03:05:49.956Z,59.07
2022-11-30T03:06:52.274Z,59.00
2022-11-30T03:07:54.579Z,59.02
2022-11-30T03:08:56.841Z,59.08
2022-11-30T03:10:00.096Z,58.98
2022-11-30T03:11:04.910Z,58.93
2022-11-30T03:12:07.281Z,59.07
2022-11-30T03:13:09.526Z,59.07
2022-11-30T03:14:11.801Z,58.95
2022-11-30T03:15:14.130Z,59.05
2022-11-30T03:16:16.458Z,58.99
2022-11-30T03:17:21.687Z,59.05
2022-11-30T03:18:23.916Z,59.17
2022-11-30T03:19:28.975Z,59.12
2022-11-30T03:20:31.363Z,59.09
2022-11-30T03:21:33.725Z,59.08
2022-11-30T03:22:36.025Z,59.11
2022-11-30T03:23:39.166Z,59.09
2022-11-30T03:24:41.338Z,59.19
2022-11-30T03:25:43.542Z,59.09
2022-11-30T03:26:45.782Z,59.17
2022-11-30T03:27:47.953Z,59.04
2022-11-30T03:28:50.209Z,59.09
2022-11-30T03:29:52.468Z,59.02
2022-11-30T03:30:57.218Z,59.04
2022-11-30T03:31:59.504Z,59.09
2022-11-30T03:33:01.738Z,59.11
2022-11-30T03:34:04.077Z,59.17
2022-11-30T03:35:06.637Z,59.20
2022-11-30T03:36:11.349Z,58.92
2022-11-30T03:37:13.725Z,59.00
2022-11-30T03:38:15.935Z,59.02
2022-11-30T03:39:18.232Z,58.89
2022-11-30T03:40:20.447Z,58.86
2022-11-30T03:41:22.651Z,58.79
2022-11-30T03:42:24.892Z,58.81
2022-11-30T03:43:27.146Z,58.97
2022-11-30T03:44:30.076Z,58.91
2022-11-30T03:45:32.278Z,58.80
2022-11-30T03:46:34.548Z,58.82
2022-11-30T03:47:37.335Z,58.89
2022-11-30T03:48:43.399Z,58.75
2022-11-30T03:49:47.951Z,58.87
2022-11-30T03:50:50.625Z,58.67
2022-11-30T03:51:52.866Z,58.86
2022-11-30T03:52:57.395Z,58.89
2022-11-30T03:53:59.663Z,58.91
2022-11-30T03:55:05.064Z,58.84
2022-11-30T03:56:14.371Z,58.72
2022-11-30T03:57:16.574Z,58.98
2022-11-30T03:58:18.965Z,58.92
2022-11-30T03:59:21.166Z,59.08
2022-11-30T04:00:23.441Z,58.92
2022-11-30T04:01:31.389Z,59.06
2022-11-30T04:02:41.551Z,58.93
2022-11-30T04:03:48.350Z,59.02
2022-11-30T04:04:53.569Z,59.10
2022-11-30T04:05:56.749Z,59.05
2022-11-30T04:06:59.157Z,59.11
2022-11-30T04:08:01.344Z,59.03
2022-11-30T04:09:03.777Z,58.95
2022-11-30T04:10:12.736Z,59.07
2022-11-30T04:11:16.243Z,59.06
2022-11-30T04:12:21.257Z,58.96
2022-11-30T04:13:24.497Z,59.20
2022-11-30T04:14:26.781Z,59.06
2022-11-30T04:15:28.967Z,59.20
2022-11-30T04:16:31.278Z,59.21
2022-11-30T04:17:33.592Z,59.36
2022-11-30T04:18:37.248Z,59.04
2022-11-30T04:19:39.431Z,59.07
2022-11-30T04:20:42.111Z,59.19
2022-11-30T04:21:44.402Z,59.07
2022-11-30T04:22:46.678Z,59.30
2022-11-30T04:23:49.010Z,59.21
2022-11-30T04:24:51.240Z,59.15
2022-11-30T04:25:53.425Z,59.13
2022-11-30T04:26:55.599Z,59.07
2022-11-30T04:27:58.137Z,59.07
2022-11-30T04:29:04.165Z,59.29
2022-11-30T04:30:10.442Z,59.26
2022-11-30T04:31:14.541Z,59.27
2022-11-30T04:32:16.851Z,59.32
2022-11-30T04:33:19.180Z,59.12
2022-11-30T04:34:21.358Z,59.35
2022-11-30T04:35:23.582Z,59.29
2022-11-30T04:36:25.764Z,59.35
2022-11-30T04:37:28.023Z,59.46
2022-11-30T04:38:31.136Z,59.39
2022-11-30T04:39:36.836Z,59.29
2022-11-30T04:40:40.909Z,59.54
2022-11-30T04:41:43.193Z,59.57
2022-11-30T04:42:48.540Z,59.60
2022-11-30T04:43:50.769Z,59.54
2022-11-30T04:44:52.987Z,59.54
2022-11-30T04:45:55.242Z,59.65
2022-11-30T04:46:57.484Z,59.72
2022-11-30T04:48:00.550Z,59.65
2022-11-30T04:49:03.180Z,59.56
2022-11-30T04:50:06.344Z,59.55
2022-11-30T04:51:09.562Z,59.71
2022-11-30T04:52:11.821Z,59.59
2022-11-30T04:53:14.122Z,59.54
2022-11-30T04:54:16.350Z,59.78
2022-11-30T04:55:19.645Z,59.75
2022-11-30T04:56:22.493Z,59.90
2022-11-30T04:57:24.908Z,59.76
2022-11-30T04:58:27.484Z,59.96
2022-11-30T04:59:33.016Z,59.94
2022-11-30T05:00:36.555Z,59.96
2022-11-30T05:01:38.823Z,59.93
2022-11-30T05:02:41.506Z,59.96
2022-11-30T05:03:44.526Z,59.96
2022-11-30T05:04:47.264Z,60.13
2022-11-30T05:05:49.732Z,59.96
2022-11-30T05:06:51.994Z,60.22
2022-11-30T05:07:58.877Z,60.26
2022-11-30T05:09:01.159Z,60.30
2022-11-30T05:10:05.171Z,60.29
2022-11-30T05:11:07.414Z,60.27
2022-11-30T05:12:09.767Z,60.28
2022-11-30T05:13:12.156Z,60.27
2022-11-30T05:14:14.616Z,60.32
2022-11-30T05:15:17.162Z,60.28
2022-11-30T05:16:19.401Z,60.20
2022-11-30T05:17:21.645Z,60.34
2022-11-30T05:18:24.040Z,60.37
2022-11-30T05:19:26.380Z,60.25
2022-11-30T05:20:29.255Z,60.27
2022-11-30T05:21:31.764Z,60.33
2022-11-30T05:22:36.873Z,60.16
2022-11-30T05:23:39.154Z,60.22
2022-11-30T05:24:41.373Z,60.30
2022-11-30T05:25:44.543Z,60.22
2022-11-30T05:26:46.819Z,60.47
2022-11-30T05:27:49.058Z,60.54
2022-11-30T05:28:51.284Z,60.45
2022-11-30T05:29:53.589Z,60.59
2022-11-30T05:30:58.177Z,60.39
2022-11-30T05:32:00.857Z,60.44
2022-11-30T05:33:03.145Z,60.45
2022-11-30T05:34:05.705Z,60.50
2022-11-30T05:35:08.752Z,60.42
2022-11-30T05:36:11.205Z,60.60
2022-11-30T05:37:16.540Z,60.58
2022-11-30T05:38:19.643Z,60.54
2022-11-30T05:39:21.845Z,60.54
2022-11-30T05:40:25.786Z,60.62
2022-11-30T05:41:28.008Z,60.76
2022-11-30T05:42:30.312Z,60.60
2022-11-30T05:43:32.537Z,60.64
2022-11-30T05:44:34.729Z,60.42
2022-11-30T05:45:37.035Z,60.52
2022-11-30T05:46:42.295Z,60.73
2022-11-30T05:47:44.534Z,60.82
2022-11-30T05:48:49.864Z,60.65
2022-11-30T05:49:52.090Z,60.85
2022-11-30T05:50:54.686Z,60.65
2022-11-30T05:51:56.878Z,60.88
2022-11-30T05:53:00.991Z,60.86
2022-11-30T05:54:03.301Z,60.72
2022-11-30T05:55:05.993Z,60.74
2022-11-30T05:56:16.157Z,60.80
2022-11-30T05:57:18.366Z,60.85
2022-11-30T05:58:20.583Z,60.86
2022-11-30T05:59:23.439Z,60.89
2022-11-30T06:00:25.688Z,60.84
2022-11-30T06:01:29.521Z,60.99
2022-11-30T06:02:31.884Z,61.00
2022-11-30T06:03:35.775Z,60.97
2022-11-30T06:04:38.008Z,60.89
2022-11-30T06:05:40.261Z,61.14
2022-11-30T06:06:42.562Z,61.05
2022-11-30T06:07:44.850Z,60.92
2022-11-30T06:08:48.888Z,61.07
2022-11-30T06:09:51.072Z,61.17
2022-11-30T06:10:54.100Z,61.11
2022-11-30T06:11:56.325Z,61.01
2022-11-30T06:12:58.600Z,61.13
2022-11-30T06:14:00.826Z,61.02
2022-11-30T06:15:03.596Z,61.22
2022-11-30T06:16:19.535Z,61.24
2022-11-30T06:17:21.810Z,61.27
2022-11-30T06:18:24.000Z,61.36
2022-11-30T06:19:26.183Z,61.24
2022-11-30T06:20:28.395Z,61.27
2022-11-30T06:21:30.583Z,61.34
2022-11-30T06:22:34.194Z,61.40
2022-11-30T06:23:39.589Z,61.30
2022-11-30T06:24:41.857Z,61.39
2022-11-30T06:25:44.131Z,61.36
2022-11-30T06:26:46.366Z,61.31
2022-11-30T06:27:48.678Z,61.32
2022-11-30T06:28:50.872Z,61.26
2022-11-30T06:29:53.103Z,61.43
2022-11-30T06:30:58.800Z,61.29
2022-11-30T06:32:01.239Z,61.31
2022-11-30T06:33:03.863Z,61.42
2022-11-30T06:34:06.027Z,61.42
2022-11-30T06:35:08.628Z,61.26
2022-11-30T06:36:10.895Z,61.41
2022-11-30T06:37:13.078Z,61.35
2022-11-30T06:38:16.313Z,61.31
2022-11-30T06:39:31.491Z,61.21
2022-11-30T06:40:40.925Z,61.34
2022-11-30T06:41:43.140Z,61.33
2022-11-30T06:42:45.455Z,61.29
2022-11-30T06:43:49.953Z,61.35
2022-11-30T06:44:52.211Z,61.32
2022-11-30T06:45:54.529Z,61.46
2022-11-30T06:46:56.779Z,61.37
2022-11-30T06:47:59.005Z,61.38
2022-11-30T06:49:01.282Z,61.41
2022-11-30T06:50:05.265Z,61.33
2022-11-30T06:51:09.356Z,61.36
2022-11-30T06:52:13.859Z,61.51
2022-11-30T06:53:16.095Z,61.49
2022-11-30T06:54:18.319Z,61.48
2022-11-30T06:55:20.525Z,61.60
2022-11-30T06:56:22.750Z,61.62
2022-11-30T06:57:31.236Z,61.48
2022-11-30T06:58:33.771Z,61.61
2022-11-30T06:59:42.454Z,61.60
2022-11-30T07:00:44.750Z,61.64
2022-11-30T07:01:47.040Z,61.73
2022-11-30T07:02:49.254Z,61.73
2022-11-30T07:03:51.633Z,61.70
2022-11-30T07:04:53.887Z,61.62
2022-11-30T07:05:56.225Z,61.81
2022-11-30T07:06:58.491Z,61.80
2022-11-30T07:08:02.364Z,61.91
2022-11-30T07:09:06.496Z,62.01
2022-11-30T07:10:14.784Z,62.00
2022-11-30T07:11:21.070Z,61.97
2022-11-30T07:12:26.482Z,62.00
2022-11-30T07:13:29.333Z,61.83
2022-11-30T07:14:31.541Z,61.98
2022-11-30T07:15:33.744Z,61.95
2022-11-30T07:16:36.083Z,61.98
2022-11-30T07:17:38.471Z,62.01
2022-11-30T07:18:45.214Z,62.19
2022-11-30T07:19:47.458Z,61.99
2022-11-30T07:20:49.696Z,62.10
2022-11-30T07:21:51.899Z,62.06
2022-11-30T07:22:57.246Z,62.21
2022-11-30T07:24:20.646Z,62.18
2022-11-30T07:25:41.899Z,62.18
2022-11-30T07:26:44.097Z,62.06
2022-11-30T07:27:46.284Z,62.28
2022-11-30T07:28:54.818Z,62.36
2022-11-30T07:29:57.226Z,62.44
2022-11-30T07:30:59.444Z,62.40
2022-11-30T07:32:01.789Z,62.36
2022-11-30T07:33:03.985Z,62.40
2022-11-30T07:34:08.133Z,62.38
2022-11-30T07:35:12.576Z,62.60
2022-11-30T07:36:16.002Z,62.50
2022-11-30T07:37:18.197Z,62.60
2022-11-30T07:38:21.019Z,62.60
2022-11-30T07:39:24.491Z,62.43
2022-11-30T07:40:26.803Z,62.51
2022-11-30T07:41:29.506Z,62.51
2022-11-30T07:42:31.729Z,62.39
2022-11-30T07:43:34.131Z,62.62
2022-11-30T07:44:36.494Z,62.53
2022-11-30T07:45:38.769Z,62.60
2022-11-30T07:46:40.989Z,62.69
2022-11-30T07:47:43.230Z,62.64
2022-11-30T07:48:46.554Z,62.59
2022-11-30T07:49:48.764Z,62.72
2022-11-30T07:50:54.327Z,62.86
2022-11-30T07:51:56.775Z,62.81
2022-11-30T07:52:58.969Z,62.80
2022-11-30T07:54:01.241Z,62.91
2022-11-30T07:55:03.605Z,62.88
2022-11-30T07:56:08.511Z,62.75
2022-11-30T07:57:11.517Z,62.91
2022-11-30T07:58:17.637Z,62.85
2022-11-30T07:59:19.930Z,62.92
2022-11-30T08:00:22.125Z,62.73
2022-11-30T08:01:28.945Z,62.76
2022-11-30T08:02:31.260Z,62.83
2022-11-30T08:03:37.122Z,62.80
2022-11-30T08:04:42.244Z,62.81
2022-11-30T08:05:44.483Z,62.80
2022-11-30T08:06:46.676Z,62.92
2022-11-30T08:07:52.751Z,62.80
2022-11-30T08:08:57.782Z,62.73
2022-11-30T08:10:00.031Z,62.78
2022-11-30T08:11:02.757Z,62.75
2022-11-30T08:12:05.111Z,62.58
2022-11-30T08:13:07.506Z,62.66
2022-11-30T08:14:13.578Z,62.70
2022-11-30T08:15:21.220Z,62.63
2022-11-30T08:16:27.247Z,62.48
2022-11-30T08:17:29.514Z,62.50
2022-11-30T08:18:31.708Z,62.36
2022-11-30T08:19:34.072Z,62.24
2022-11-30T08:20:36.568Z,62.20
2022-11-30T08:21:39.522Z,62.20
2022-11-30T08:22:41.693Z,61.78
2022-11-30T08:23:46.781Z,61.84
2022-11-30T08:24:52.125Z,61.49
2022-11-30T08:25:54.345Z,61.70
2022-11-30T08:26:56.630Z,61.26
2022-11-30T08:27:58.826Z,61.24
2022-11-30T08:29:01.969Z,60.88
2022-11-30T08:30:04.947Z,60.79
2022-11-30T08:31:16.192Z,60.71
2022-11-30T08:32:18.639Z,60.68
2022-11-30T08:33:21.005Z,60.23
2022-11-30T08:34:23.261Z,60.15
2022-11-30T08:35:25.467Z,59.93
2022-11-30T08:36:30.137Z,59.52
2022-11-30T08:37:32.446Z,59.46
2022-11-30T08:38:35.208Z,59.43
2022-11-30T08:39:37.517Z,59.27
2022-11-30T08:40:41.490Z,59.15
2022-11-30T08:41:43.734Z,59.21
2022-11-30T08:42:45.951Z,59.09
2022-11-30T08:43:49.801Z,58.91
2022-11-30T08:44:59.884Z,58.78
2022-11-30T08:46:21.179Z,58.69
2022-11-30T08:47:28.419Z,58.66
2022-11-30T08:48:30.942Z,58.69
2022-11-30T08:49:33.135Z,58.50
2022-11-30T08:50:35.701Z,58.57
2022-11-30T08:52:14.654Z,58.28
2022-11-30T08:53:06.081Z,58.21
2022-11-30T08:54:08.640Z,57.85
2022-11-30T08:55:10.873Z,57.37
2022-11-30T08:56:21.654Z,57.08
2022-11-30T08:57:23.848Z,57.02
2022-11-30T08:58:27.173Z,56.93
2022-11-30T08:59:31.777Z,56.84
2022-11-30T09:00:34.021Z,56.65
2022-11-30T09:01:36.417Z,56.62
2022-11-30T09:02:38.654Z,56.11
2022-11-30T09:03:42.282Z,55.96
2022-11-30T09:04:49.094Z,55.48
2022-11-30T09:05:51.764Z,55.45
2022-11-30T09:06:59.154Z,55.55
2022-11-30T09:08:13.392Z,55.09
2022-11-30T09:09:27.667Z,55.11
2022-11-30T09:10:37.426Z,54.80
2022-11-30T09:12:08.405Z,54.60
2022-11-30T09:13:25.104Z,54.38
2022-11-30T09:14:37.706Z,54.32
2022-11-30T09:16:03.194Z,54.33
2022-11-30T09:17:29.572Z,54.04
2022-11-30T09:19:01.662Z,54.13
2022-11-30T09:20:05.189Z,53.94
2022-11-30T09:21:29.766Z,53.76
2022-11-30T09:22:52.158Z,53.86
2022-11-30T09:24:12.270Z,53.69
2022-11-30T09:25:24.572Z,53.69
2022-11-30T09:26:46.387Z,53.43
2022-11-30T09:28:06.791Z,53.28
2022-11-30T09:29:22.246Z,53.19
2022-11-30T09:30:41.628Z,52.93
2022-11-30T09:32:16.022Z,52.55
2022-11-30T09:33:24.936Z,52.52
2022-11-30T09:36:12.465Z,52.12
2022-11-30T09:37:34.900Z,52.04
2022-11-30T09:38:56.822Z,51.98
2022-11-30T09:40:45.775Z,51.79
2022-11-30T09:42:35.604Z,52.03
2022-11-30T09:44:21.427Z,51.86
2022-11-30T09:45:29.222Z,51.72
2022-11-30T09:47:44.418Z,51.94
2022-11-30T09:49:11.226Z,51.69
2022-11-30T09:50:30.079Z,51.66
2022-11-30T09:51:55.722Z,51.71
2022-11-30T09:53:15.044Z,51.59
2022-11-30T09:54:53.964Z,51.67
2022-11-30T09:56:20.186Z,51.25
2022-11-30T09:58:34.042Z,51.27
2022-11-30T09:59:45.523Z,51.13
2022-11-30T10:01:32.959Z,50.97
2022-11-30T10:02:55.587Z,51.09
2022-11-30T10:05:45.745Z,50.93
2022-11-30T10:07:15.009Z,50.93
2022-11-30T10:08:55.232Z,51.01
2022-11-30T10:10:45.871Z,50.89
2022-11-30T10:12:39.961Z,51.02
2022-11-30T10:14:21.031Z,50.90
2022-11-30T10:15:44.257Z,50.77
2022-11-30T10:16:55.322Z,50.42
2022-11-30T10:18:20.278Z,50.30
2022-11-30T10:19:51.314Z,50.22
2022-11-30T10:21:33.238Z,50.47
2022-11-30T10:23:09.421Z,50.23
2022-11-30T10:24:30.624Z,49.79
2022-11-30T10:26:03.401Z,50.27
2022-11-30T10:27:37.454Z,49.99
2022-11-30T10:28:49.305Z,49.62
2022-11-30T10:29:59.318Z,49.49
2022-11-30T10:31:53.714Z,50.02
2022-11-30T10:33:11.242Z,49.66
2022-11-30T10:34:32.685Z,49.77
2022-11-30T10:35:56.201Z,49.87
2022-11-30T10:37:12.540Z,49.67
2022-11-30T10:38:32.093Z,49.68
2022-11-30T10:39:49.877Z,49.90
2022-11-30T10:41:10.205Z,49.80
2022-11-30T10:42:34.547Z,49.74
2022-11-30T10:43:57.996Z,49.57
2022-11-30T10:45:34.689Z,49.57
2022-11-30T10:47:11.539Z,49.71
2022-11-30T10:48:23.957Z,49.74
2022-11-30T10:51:31.839Z,49.76
2022-11-30T10:52:47.922Z,49.90
2022-11-30T10:53:55.198Z,49.84
2022-11-30T10:55:11.003Z,49.93
2022-11-30T10:56:30.135Z,49.94
2022-11-30T10:57:54.858Z,49.72
2022-11-30T10:59:23.384Z,49.85
2022-11-30T11:00:37.639Z,49.74
2022-11-30T11:02:36.095Z,49.67
2022-11-30T11:03:44.959Z,49.81
2022-11-30T11:05:29.483Z,50.20
2022-11-30T11:06:37.635Z,50.14
2022-11-30T11:07:50.742Z,50.05
2022-11-30T11:08:57.758Z,49.99
2022-11-30T11:10:07.701Z,49.85
2022-11-30T11:11:35.565Z,50.02
2022-11-30T11:12:57.892Z,50.06
2022-11-30T11:14:26.982Z,50.16
2022-11-30T11:15:51.909Z,49.95
2022-11-30T11:17:06.167Z,50.05
2022-11-30T11:18:35.129Z,50.07
2022-11-30T11:19:44.491Z,49.80
2022-11-30T11:21:22.937Z,49.72
2022-11-30T11:24:21.627Z,49.94
2022-11-30T11:25:41.705Z,49.77
2022-11-30T11:27:07.618Z,49.77
2022-11-30T11:29:06.536Z,49.84
2022-11-30T11:32:51.513Z,49.49
2022-11-30T11:34:51.247Z,49.92
2022-11-30T11:36:20.881Z,49.90
2022-11-30T11:37:44.171Z,50.12
2022-11-30T11:40:23.686Z,50.05
2022-11-30T11:41:41.392Z,50.18
2022-11-30T11:43:03.287Z,49.98
2022-11-30T11:44:13.516Z,50.04
2022-11-30T11:45:23.019Z,49.94
2022-11-30T11:47:04.524Z,49.88
2022-11-30T11:48:44.150Z,49.91
2022-11-30T11:49:50.897Z,49.75
2022-11-30T11:51:29.214Z,49.93
2022-11-30T11:52:31.505Z,49.73
2022-11-30T11:53:53.909Z,49.71
2022-11-30T11:55:04.455Z,49.73
2022-11-30T11:56:20.688Z,49.76
2022-11-30T11:57:50.136Z,49.87
2022-11-30T11:59:03.295Z,49.87
2022-11-30T12:00:16.441Z,49.78
2022-11-30T12:01:39.871Z,49.81
2022-11-30T12:03:08.145Z,49.94
2022-11-30T12:04:33.031Z,49.89
2022-11-30T12:05:44.483Z,49.93
2022-11-30T12:06:51.579Z,50.03
2022-11-30T12:08:08.874Z,49.86
2022-11-30T12:09:30.030Z,50.03
2022-11-30T12:10:51.820Z,50.16
2022-11-30T12:11:54.937Z,49.97
2022-11-30T12:12:59.723Z,50.10
2022-11-30T12:14:05.305Z,50.08
2022-11-30T12:15:15.201Z,50.18
2022-11-30T12:16:40.788Z,50.40
2022-11-30T12:18:06.626Z,50.46
2022-11-30T12:19:20.848Z,50.39
2022-11-30T12:20:57.532Z,50.56
2022-11-30T12:22:06.055Z,50.46
2022-11-30T12:23:32.203Z,50.51
2022-11-30T12:25:05.767Z,50.72
2022-11-30T12:26:13.185Z,50.67
2022-11-30T12:27:24.280Z,50.71
2022-11-30T12:28:38.731Z,50.59
2022-11-30T12:29:55.396Z,50.74
2022-11-30T12:31:12.241Z,50.87
2022-11-30T12:33:00.379Z,50.84
2022-11-30T12:34:11.714Z,50.91
2022-11-30T12:35:39.522Z,50.92
2022-11-30T12:36:53.799Z,51.16
2022-11-30T12:38:14.970Z,51.25
2022-11-30T12:39:45.573Z,51.02
2022-11-30T12:41:16.192Z,51.26
2022-11-30T12:42:37.347Z,51.37
2022-11-30T12:43:47.096Z,51.31
2022-11-30T12:45:11.821Z,51.39
2022-11-30T12:46:48.139Z,51.47
2022-11-30T12:48:12.106Z,51.60
2022-11-30T12:49:22.257Z,51.66
2022-11-30T12:50:58.759Z,51.67
2022-11-30T12:52:25.748Z,51.57
2022-11-30T12:53:39.962Z,51.60
2022-11-30T12:55:04.124Z,51.68
2022-11-30T12:56:19.768Z,51.76
2022-11-30T12:57:49.084Z,51.99
2022-11-30T12:59:24.106Z,51.94
2022-11-30T13:00:32.276Z,51.96
2022-11-30T13:01:52.448Z,52.08
2022-11-30T13:03:05.222Z,51.87
2022-11-30T13:04:27.472Z,51.93
2022-11-30T13:05:54.861Z,52.05
2022-11-30T13:07:08.772Z,52.00
2022-11-30T13:08:29.556Z,52.00
2022-11-30T13:10:07.779Z,52.24
2022-11-30T13:11:21.634Z,52.11
2022-11-30T13:12:37.468Z,52.17
2022-11-30T13:13:56.504Z,52.27
2022-11-30T13:15:00.785Z,52.27
2022-11-30T13:16:10.972Z,52.18
2022-11-30T13:17:18.402Z,52.18
2022-11-30T13:18:23.288Z,52.23
2022-11-30T13:19:50.664Z,52.30
2022-11-30T13:21:06.427Z,52.08
2022-11-30T13:22:22.663Z,52.31
2022-11-30T13:23:42.654Z,52.39
2022-11-30T13:24:56.821Z,52.29
2022-11-30T13:26:27.222Z,52.38
2022-11-30T13:27:39.582Z,52.35
2022-11-30T13:28:41.751Z,52.42
2022-11-30T13:29:57.641Z,52.36
2022-11-30T13:31:17.837Z,52.36
2022-11-30T13:32:56.240Z,52.44
2022-11-30T13:33:59.815Z,52.38
2022-11-30T13:35:31.314Z,52.48
2022-11-30T13:36:39.545Z,52.49
2022-11-30T13:37:41.825Z,52.52
2022-11-30T13:38:44.104Z,52.52
2022-11-30T13:39:59.477Z,52.64
2022-11-30T13:41:04.606Z,52.62
2022-11-30T13:42:12.569Z,52.75
2022-11-30T13:43:21.891Z,52.57
2022-11-30T13:44:34.391Z,52.68
2022-11-30T13:45:36.697Z,52.78
2022-11-30T13:46:51.560Z,52.79
2022-11-30T13:47:56.112Z,52.78
2022-11-30T13:49:21.333Z,52.87
2022-11-30T13:50:39.404Z,52.85
2022-11-30T13:51:42.367Z,53.02
2022-11-30T13:53:03.024Z,52.84
2022-11-30T13:54:51.002Z,52.82
2022-11-30T13:55:57.312Z,52.78
2022-11-30T13:56:59.515Z,52.73
2022-11-30T13:58:01.685Z,52.83
2022-11-30T13:59:25.202Z,52.80
2022-11-30T14:00:30.268Z,52.76
2022-11-30T14:01:32.625Z,52.75
2022-11-30T14:02:42.118Z,52.58
2022-11-30T14:04:15.090Z,52.66
2022-11-30T14:05:17.627Z,52.63
2022-11-30T14:06:41.375Z,52.64
2022-11-30T14:07:49.965Z,52.62
2022-11-30T14:08:54.837Z,52.59
2022-11-30T14:09:59.052Z,52.40
2022-11-30T14:11:19.305Z,52.64
2022-11-30T14:12:34.686Z,52.54
2022-11-30T14:13:37.497Z,52.50
2022-11-30T14:14:47.887Z,52.61
2022-11-30T14:15:50.062Z,52.55
2022-11-30T14:16:53.072Z,52.59
2022-11-30T14:17:57.431Z,52.64
2022-11-30T14:19:00.542Z,52.63
2022-11-30T14:20:16.217Z,52.56
2022-11-30T14:21:36.813Z,52.68
2022-11-30T14:22:40.460Z,52.70
2022-11-30T14:24:02.229Z,52.76
2022-11-30T14:25:17.416Z,52.61
2022-11-30T14:26:28.936Z,52.63
2022-11-30T14:27:38.928Z,52.60
2022-11-30T14:28:52.527Z,52.70
2022-11-30T14:30:01.900Z,52.69
2022-11-30T14:31:09.195Z,52.71
2022-11-30T14:32:17.163Z,52.89
2022-11-30T14:33:25.749Z,52.80
2022-11-30T14:34:36.671Z,52.73
2022-11-30T14:35:40.609Z,52.84
2022-11-30T14:36:50.948Z,52.90
2022-11-30T14:37:58.547Z,52.86
2022-11-30T14:39:00.799Z,52.84
2022-11-30T14:40:06.415Z,52.83
2022-11-30T14:41:24.039Z,52.94
2022-11-30T14:42:30.567Z,52.90
2022-11-30T14:43:40.456Z,52.85
2022-11-30T14:44:42.744Z,52.92
2022-11-30T14:46:05.110Z,52.98
2022-11-30T14:47:23.903Z,52.93
2022-11-30T14:48:27.949Z,53.01
2022-11-30T14:49:30.169Z,52.94
2022-11-30T14:50:33.047Z,53.05
2022-11-30T14:51:38.942Z,53.02
2022-11-30T14:52:41.090Z,52.99
2022-11-30T14:54:00.679Z,52.99
2022-11-30T14:55:39.823Z,53.14
2022-11-30T14:56:49.832Z,52.97
2022-11-30T14:58:18.241Z,53.12
2022-11-30T14:59:33.126Z,53.08
2022-11-30T15:00:41.139Z,53.27
2022-11-30T15:01:43.856Z,53.13
2022-11-30T15:02:47.124Z,53.16
2022-11-30T15:03:51.900Z,53.12